Nearby METAR Reports

 

KVCT - Victoria, Texas, USA
Distance from station: E 12mi, 20km
Updated: 01/18/2021 8:51pm
Partly cloudy
Partly cloudy
 Wind from SSE
Wind: SSE 10 mph , 17 km/h
Temperature: 64°F , 18°C
Dew Point: 61°F , 16°C
Humidity: 88%
Barometer: 29.98 inHg , 1015.2 hPa
Clouds: Partly cloudy
Visibility: 10 miles , 16 km
Cloud details: Partly cloudy 2300 ft
Partly cloudy 3700 ft
2021/01/19 02:51 KVCT 190251Z 15009KT 10SM SCT023 SCT037 18/16 A2998 RMK AO2 SLP153 T01780161 52012
KPKV - Port Lavaca, Texas, USA
Distance from station: ESE 31mi, 50km
Updated: 01/18/2021 8:55pm
Clear
Clear
 Wind from SSE
Wind: SSE 9 mph , 15 km/h
Temperature: 66°F , 19°C
Dew Point: 61°F , 16°C
Humidity: 83%
Barometer: 29.99 inHg , 1015.6 hPa
Clouds: Clear
Visibility: 7 miles , 11 km
2021/01/19 02:55 KPKV 190255Z AUTO 15008KT 7SM CLR 19/16 A2999 RMK AO2 T01880161
 
KT20 - Gonzales Muni, Texas, USA
Distance from station: NNW 50mi, 81km
Updated: 01/18/2021 8:35pm
Overcast
Overcast
 Wind from S
Wind: S 10 mph , 17 km/h, Gust: 16 mph , 26 km/h
Temperature: 68°F , 20°C
Dew Point: 63°F , 17°C
Humidity: 83%
Barometer: 29.96 inHg , 1014.6 hPa
Clouds: Overcast
Visibility: 10 miles , 16 km
Cloud details: Overcast 1900 ft
2021/01/19 02:35 KT20 190235Z AUTO 17009G14KT 10SM OVC019 20/17 A2996 RMK AO2 T02010168
KBEA - Beeville Muni, Texas, USA
Distance from station: SW 51mi, 83km
Updated: 01/18/2021 8:55pm
Partly cloudy
Partly cloudy
 Wind from SSE
Wind: SSE 16 mph , 26 km/h, Gust: 23 mph , 37 km/h
Temperature: 68°F , 20°C
Dew Point: 64°F , 18°C
Humidity: 88%
Barometer: 29.94 inHg , 1013.9 hPa
Clouds: Partly cloudy
Visibility: 10 miles , 16 km
Cloud details: Partly cloudy 4200 ft
2021/01/19 02:55 KBEA 190255Z AUTO 16014G20KT 10SM SCT042 20/18 A2994 RMK AO2 T01980184
 
KRKP - Rockport, Texas, USA
Distance from station: S 53mi, 86km
Updated: 01/18/2021 8:53pm
Mostly cloudy
Mostly cloudy
 Wind from SSE
Wind: SSE 14 mph , 22 km/h, Gust: 24 mph , 39 km/h
Temperature: 68°F , 20°C
Dew Point: 64°F , 18°C
Humidity: 88%
Barometer: 29.97 inHg , 1014.9 hPa
Clouds: Mostly cloudy
Visibility: 8 miles , 13 km
Cloud details: Mostly cloudy 5000 ft
2021/01/19 02:53 KRKP 190253Z AUTO 15012G21KT 8SM BKN050 20/18 A2997 RMK AO2 SLP148 T02000178 51009 $
KPSX - Palacios, Texas, USA
Distance from station: E 55mi, 88km
Updated: 01/18/2021 8:52pm
Mostly cloudy
Mostly cloudy
 Wind from SSE
Wind: SSE 12 mph , 19 km/h
Temperature: 64°F , 18°C
Dew Point: 61°F , 16°C
Humidity: 88%
Barometer: 30.00 inHg , 1015.9 hPa
Clouds: Mostly cloudy
Visibility: 9 miles , 14 km
Cloud details: Few Clouds 3000 ft
Mostly cloudy 5500 ft
2021/01/19 02:52 KPSX 190252Z AUTO 15010KT 9SM FEW030 BKN055 18/16 A3000 RMK AO2 SLP160 T01780161 53010 $
 
KTFP - Ingleside/Tp Mcc, Texas, USA
Distance from station: S 65mi, 104km
Updated: 01/18/2021 8:35pm
Partly cloudy
Partly cloudy
 Wind from S
Wind: S 17 mph , 28 km/h, Gust: 22 mph , 35 km/h
Temperature: 68°F , 20°C
Dew Point: 64°F , 18°C
Humidity: 88%
Barometer: 29.96 inHg , 1014.6 hPa
Clouds: Partly cloudy
Visibility: 10 miles , 16 km
Cloud details: Partly cloudy 5000 ft
2021/01/19 02:35 KTFP 190235Z AUTO 18015G19KT 10SM SCT050 20/18 A2996 RMK AO2 T02010178
K66R - Columbus, Texas, USA
Distance from station: NE 66mi, 106km
Updated: 01/18/2021 8:55pm
Overcast
Overcast
 Wind from SSE
Wind: SSE 10 mph , 17 km/h
Temperature: 64°F , 18°C
Dew Point: 63°F , 17°C
Humidity: 94%
Barometer: 30.01 inHg , 1016.3 hPa
Clouds: Overcast
Visibility: 10 miles , 16 km
Cloud details: Partly cloudy 1300 ft
Mostly cloudy 1800 ft
Overcast 2500 ft
2021/01/19 02:55 K66R 190255Z AUTO 15009KT 10SM SCT013 BKN018 OVC025 18/17 A3001 RMK AO2 T01800165
 
KARM - Wharton, Texas, USA
Distance from station: ENE 66mi, 106km
Updated: 01/18/2021 8:55pm
Mostly cloudy
Mostly cloudy
 Wind from SE
Wind: SE 12 mph , 19 km/h, Gust: 16 mph , 26 km/h
Temperature: 63°F , 17°C
Dew Point: 59°F , 15°C
Humidity: 88%
Barometer: 30.02 inHg , 1016.6 hPa
Clouds: Mostly cloudy
Visibility: 10 miles , 16 km
Cloud details: Partly cloudy 2100 ft
Partly cloudy 4400 ft
Mostly cloudy 5500 ft
2021/01/19 02:55 KARM 190255Z AUTO 14010G14KT 10SM SCT021 SCT044 BKN055 17/15 A3002 RMK AO2 T01700148
KRAS - Port Aransas, Texas, USA
Distance from station: S 71mi, 115km
Updated: 01/18/2021 8:55pm
Haze, Overcast
Haze, Overcast
 Wind from SSE
Wind: SSE 12 mph , 19 km/h
Barometer: 29.99 inHg , 1015.6 hPa
Summary: Haze
Clouds: Overcast
Visibility: 7 miles , 11 km
Cloud details: Partly cloudy 4000 ft
Overcast 5000 ft
2021/01/19 02:55 KRAS 190255Z AUTO 15010KT 7SM HZ SCT040 OVC050 A2999 RMK AO2
 
KELA - Eagle Lake, Texas, USA
Distance from station: NE 72mi, 115km
Updated: 01/18/2021 8:55pm
Overcast
Overcast
 
Temperature: 64°F , 18°C
Dew Point: 61°F , 16°C
Humidity: 88%
Barometer: 30.01 inHg , 1016.3 hPa
Clouds: Overcast
Visibility: 10 miles , 16 km
Cloud details: Partly cloudy 1300 ft
Overcast 1900 ft
2021/01/19 02:55 KELA 190255Z AUTO 10SM SCT013 OVC019 18/16 A3001 RMK AO2 T01800163
K3T5 - La Grange, Texas, USA
Distance from station: N 73mi, 118km
Updated: 01/18/2021 8:55pm
Overcast
Overcast
 Wind from SSE
Wind: SSE 9 mph , 15 km/h
Temperature: 66°F , 19°C
Dew Point: 64°F , 18°C
Humidity: 94%
Barometer: 29.97 inHg , 1014.9 hPa
Clouds: Overcast
Visibility: 10 miles , 16 km
Cloud details: Mostly cloudy 1600 ft
Overcast 2500 ft
2021/01/19 02:55 K3T5 190255Z AUTO 15008KT 10SM BKN016 OVC025 19/18 A2997 RMK AO2 T01930178
 
KBYY - Bay City, Texas, USA
Distance from station: E 77mi, 124km
Updated: 01/18/2021 8:55pm
Partly cloudy
Partly cloudy
 Wind from SSE
Wind: SSE 12 mph , 19 km/h
Temperature: 63°F , 17°C
Dew Point: 61°F , 16°C
Humidity: 94%
Barometer: 30.02 inHg , 1016.6 hPa
Clouds: Partly cloudy
Visibility: 10 miles , 16 km
Cloud details: Partly cloudy 2600 ft
Partly cloudy 5500 ft
2021/01/19 02:55 KBYY 190255Z AUTO 15010KT 10SM SCT026 SCT055 17/16 A3002 RMK AO2 T01790161
KCRP - Corpus Christi, Texas, USA
Distance from station: SSW 78mi, 126km
Updated: 01/18/2021 8:51pm
Mostly cloudy
Mostly cloudy
 Wind from SSE
Wind: SSE 18 mph , 30 km/h
Temperature: 66°F , 19°C
Dew Point: 63°F , 17°C
Humidity: 88%
Barometer: 29.96 inHg , 1014.6 hPa
Clouds: Mostly cloudy
Visibility: 10 miles , 16 km
Cloud details: Partly cloudy 4200 ft
Mostly cloudy 4900 ft
2021/01/19 02:51 KCRP 190251Z 16016KT 10SM SCT042 BKN049 19/17 A2996 RMK AO2 SLP146 T01940172 51014
 
KNGP - C. Christi Nas, Texas, USA
Distance from station: S 81mi, 130km
Updated: 01/18/2021 8:56pm
Mostly cloudy
Mostly cloudy
 Wind from SSE
Wind: SSE 17 mph , 28 km/h
Temperature: 70°F , 21°C
Dew Point: 64°F , 18°C
Humidity: 83%
Barometer: 29.97 inHg , 1014.9 hPa
Clouds: Mostly cloudy
Visibility: 10 miles , 16 km
Cloud details: Mostly cloudy 5000 ft
2021/01/19 02:56 KNGP 190256Z AUTO 16015KT 10SM BKN050 21/18 A2997 RMK AO2 SLP148 T02060178 51012
KRBO - Robstown/Nueces, Texas, USA
Distance from station: SSW 81mi, 130km
Updated: 01/18/2021 8:35pm
Clear
Clear
 Wind from SSE
Wind: SSE 18 mph , 30 km/h, Gust: 24 mph , 39 km/h
Temperature: 70°F , 21°C
Dew Point: 64°F , 18°C
Humidity: 83%
Barometer: 29.96 inHg , 1014.6 hPa
Clouds: Clear
Visibility: 10 miles , 16 km
2021/01/19 02:35 KRBO 190235Z AUTO 16016G21KT 10SM CLR 21/18 A2996 RMK AO2 T02100181
 
KBAZ - New Braunfels, Texas, USA
Distance from station: NW 81mi, 131km
Updated: 01/18/2021 8:51pm
Overcast
Overcast
 Wind from SSE
Wind: SSE 16 mph , 26 km/h
Temperature: 68°F , 20°C
Dew Point: 61°F , 16°C
Humidity: 78%
Barometer: 29.94 inHg , 1013.9 hPa
Clouds: Overcast
Visibility: 10 miles , 16 km
Cloud details: Overcast 1700 ft
2021/01/19 02:51 KBAZ 190251Z AUTO 16014KT 10SM OVC017 20/16 A2994 RMK AO2 SLP135 T02000156 51020
KRND - Randolph Afb, Texas, USA
Distance from station: NW 82mi, 132km
Updated: 01/18/2021 8:56pm
Mostly cloudy
Mostly cloudy
 Wind from SE
Wind: SE 12 mph , 19 km/h
Temperature: 64°F , 18°C
Dew Point: 61°F , 16°C
Humidity: 88%
Barometer: 29.94 inHg , 1013.9 hPa
Clouds: Mostly cloudy
Visibility: 10 miles , 16 km
Cloud details: Partly cloudy 1400 ft
Mostly cloudy 5000 ft
2021/01/19 02:56 KRND 190256Z AUTO 13010KT 10SM SCT014 BKN050 18/16 A2994 RMK AO2 SLP137 T01780163 52022 $
 
KHYI - San Marcos, Texas, USA
Distance from station: NNW 84mi, 135km
Updated: 01/18/2021 8:56pm
Overcast
Overcast
 Wind from SSE
Wind: SSE 15 mph , 24 km/h
Temperature: 64°F , 18°C
Dew Point: 63°F , 17°C
Humidity: 94%
Barometer: 29.96 inHg , 1014.6 hPa
Clouds: Overcast
Visibility: 10 miles , 16 km
Cloud details: Overcast 2000 ft
2021/01/19 02:56 KHYI 190256Z AUTO 16013KT 10SM OVC020 18/17 A2996 RMK AO2 SLP140 T01830167 53018
KPEZ - Pleasanton Muni, Texas, USA
Distance from station: W 84mi, 135km
Updated: 01/18/2021 8:55pm
Clear
Clear
 Wind from SE
Wind: SE 8 mph , 13 km/h
Temperature: 66°F , 19°C
Dew Point: 61°F , 16°C
Humidity: 83%
Barometer: 29.93 inHg , 1013.5 hPa
Clouds: Clear
Visibility: 10 miles , 16 km
2021/01/19 02:55 KPEZ 190255Z AUTO 13007KT 10SM CLR 19/16 A2993 RMK AO2 T01910161